sensor_id;sensor_type;location;lat;lon;timestamp;P1;durP1;ratioP1;P2;durP2;ratioP2
18732;SDS011;9495;51.210;2.934;2022-09-09T00:01:01;10.70;;;4.95;;
18732;SDS011;9495;51.210;2.934;2022-09-09T00:03:40;10.88;;;5.32;;
18732;SDS011;9495;51.210;2.934;2022-09-09T00:06:14;10.40;;;4.78;;
18732;SDS011;9495;51.210;2.934;2022-09-09T00:08:52;10.10;;;4.93;;
18732;SDS011;9495;51.210;2.934;2022-09-09T00:11:28;12.48;;;5.32;;
18732;SDS011;9495;51.210;2.934;2022-09-09T00:14:06;8.93;;;4.85;;
18732;SDS011;9495;51.210;2.934;2022-09-09T00:16:40;8.52;;;4.82;;
18732;SDS011;9495;51.210;2.934;2022-09-09T00:19:18;9.73;;;4.35;;
18732;SDS011;9495;51.210;2.934;2022-09-09T00:21:52;6.60;;;3.88;;
18732;SDS011;9495;51.210;2.934;2022-09-09T00:24:28;11.60;;;3.85;;
18732;SDS011;9495;51.210;2.934;2022-09-09T00:27:06;9.07;;;3.55;;
18732;SDS011;9495;51.210;2.934;2022-09-09T00:29:40;7.93;;;4.10;;
18732;SDS011;9495;51.210;2.934;2022-09-09T00:32:13;7.15;;;3.70;;
18732;SDS011;9495;51.210;2.934;2022-09-09T00:34:46;8.93;;;4.03;;
18732;SDS011;9495;51.210;2.934;2022-09-09T00:37:17;9.82;;;3.88;;
18732;SDS011;9495;51.210;2.934;2022-09-09T00:39:47;7.60;;;3.47;;
18732;SDS011;9495;51.210;2.934;2022-09-09T00:42:20;6.22;;;3.60;;
18732;SDS011;9495;51.210;2.934;2022-09-09T00:44:52;10.75;;;3.90;;
18732;SDS011;9495;51.210;2.934;2022-09-09T00:47:38;8.32;;;3.80;;
18732;SDS011;9495;51.210;2.934;2022-09-09T00:50:15;10.75;;;3.88;;
18732;SDS011;9495;51.210;2.934;2022-09-09T00:52:59;7.30;;;4.30;;
18732;SDS011;9495;51.210;2.934;2022-09-09T00:55:38;9.02;;;3.20;;
18732;SDS011;9495;51.210;2.934;2022-09-09T00:58:11;6.47;;;3.13;;
18732;SDS011;9495;51.210;2.934;2022-09-09T01:00:41;8.52;;;3.22;;
18732;SDS011;9495;51.210;2.934;2022-09-09T01:03:16;9.40;;;3.72;;
18732;SDS011;9495;51.210;2.934;2022-09-09T01:05:54;8.02;;;3.03;;
18732;SDS011;9495;51.210;2.934;2022-09-09T01:08:35;6.90;;;3.13;;
18732;SDS011;9495;51.210;2.934;2022-09-09T01:11:20;8.30;;;3.20;;
18732;SDS011;9495;51.210;2.934;2022-09-09T01:13:53;9.02;;;3.08;;
18732;SDS011;9495;51.210;2.934;2022-09-09T01:16:27;10.48;;;3.45;;
18732;SDS011;9495;51.210;2.934;2022-09-09T01:18:58;10.75;;;3.25;;
18732;SDS011;9495;51.210;2.934;2022-09-09T01:21:32;9.75;;;3.00;;
18732;SDS011;9495;51.210;2.934;2022-09-09T01:24:14;7.90;;;2.75;;
18732;SDS011;9495;51.210;2.934;2022-09-09T01:26:50;7.63;;;3.17;;
18732;SDS011;9495;51.210;2.934;2022-09-09T01:29:22;7.50;;;3.20;;
18732;SDS011;9495;51.210;2.934;2022-09-09T01:31:52;9.55;;;2.63;;
18732;SDS011;9495;51.210;2.934;2022-09-09T01:34:22;10.52;;;2.85;;
18732;SDS011;9495;51.210;2.934;2022-09-09T01:36:53;7.80;;;2.95;;
18732;SDS011;9495;51.210;2.934;2022-09-09T01:39:26;10.02;;;3.45;;
18732;SDS011;9495;51.210;2.934;2022-09-09T01:41:56;7.50;;;2.65;;
18732;SDS011;9495;51.210;2.934;2022-09-09T01:44:25;7.80;;;3.08;;
18732;SDS011;9495;51.210;2.934;2022-09-09T01:46:53;13.35;;;2.80;;
18732;SDS011;9495;51.210;2.934;2022-09-09T01:49:22;7.47;;;2.50;;
18732;SDS011;9495;51.210;2.934;2022-09-09T01:51:51;9.57;;;2.55;;
18732;SDS011;9495;51.210;2.934;2022-09-09T01:54:21;7.38;;;2.70;;
18732;SDS011;9495;51.210;2.934;2022-09-09T01:56:54;11.82;;;3.05;;
18732;SDS011;9495;51.210;2.934;2022-09-09T01:59:37;8.00;;;2.88;;
18732;SDS011;9495;51.210;2.934;2022-09-09T02:02:14;9.35;;;3.22;;
18732;SDS011;9495;51.210;2.934;2022-09-09T02:04:47;7.18;;;2.65;;
18732;SDS011;9495;51.210;2.934;2022-09-09T02:07:22;7.05;;;2.78;;
18732;SDS011;9495;51.210;2.934;2022-09-09T02:10:10;8.55;;;2.80;;
18732;SDS011;9495;51.210;2.934;2022-09-09T02:12:46;9.13;;;2.72;;
18732;SDS011;9495;51.210;2.934;2022-09-09T02:15:20;8.90;;;2.90;;
18732;SDS011;9495;51.210;2.934;2022-09-09T02:17:54;11.50;;;2.80;;
18732;SDS011;9495;51.210;2.934;2022-09-09T02:20:25;9.63;;;2.55;;
18732;SDS011;9495;51.210;2.934;2022-09-09T02:23:00;9.65;;;2.58;;
18732;SDS011;9495;51.210;2.934;2022-09-09T02:25:29;8.95;;;2.50;;
18732;SDS011;9495;51.210;2.934;2022-09-09T02:27:58;6.75;;;2.60;;
18732;SDS011;9495;51.210;2.934;2022-09-09T02:30:29;12.82;;;2.83;;
18732;SDS011;9495;51.210;2.934;2022-09-09T02:33:00;5.45;;;2.10;;
18732;SDS011;9495;51.210;2.934;2022-09-09T02:35:32;12.85;;;2.92;;
18732;SDS011;9495;51.210;2.934;2022-09-09T02:38:04;10.27;;;2.88;;
18732;SDS011;9495;51.210;2.934;2022-09-09T02:40:35;13.10;;;3.00;;
18732;SDS011;9495;51.210;2.934;2022-09-09T02:43:05;8.77;;;2.70;;
18732;SDS011;9495;51.210;2.934;2022-09-09T02:45:35;15.93;;;3.15;;
18732;SDS011;9495;51.210;2.934;2022-09-09T02:48:11;12.02;;;3.20;;
18732;SDS011;9495;51.210;2.934;2022-09-09T02:50:48;12.85;;;3.70;;
18732;SDS011;9495;51.210;2.934;2022-09-09T02:53:24;9.38;;;3.20;;
18732;SDS011;9495;51.210;2.934;2022-09-09T02:56:04;10.55;;;3.95;;
18732;SDS011;9495;51.210;2.934;2022-09-09T02:58:38;10.75;;;3.35;;
18732;SDS011;9495;51.210;2.934;2022-09-09T03:01:07;16.60;;;4.07;;
18732;SDS011;9495;51.210;2.934;2022-09-09T03:03:35;15.00;;;4.15;;
18732;SDS011;9495;51.210;2.934;2022-09-09T03:06:04;16.73;;;3.75;;
18732;SDS011;9495;51.210;2.934;2022-09-09T03:08:33;10.68;;;3.17;;
18732;SDS011;9495;51.210;2.934;2022-09-09T03:11:02;15.25;;;3.67;;
18732;SDS011;9495;51.210;2.934;2022-09-09T03:13:30;14.20;;;3.42;;
18732;SDS011;9495;51.210;2.934;2022-09-09T03:16:00;13.80;;;4.05;;
18732;SDS011;9495;51.210;2.934;2022-09-09T03:18:30;19.17;;;4.95;;
18732;SDS011;9495;51.210;2.934;2022-09-09T03:20:58;14.77;;;4.32;;
18732;SDS011;9495;51.210;2.934;2022-09-09T03:23:27;13.18;;;4.70;;
18732;SDS011;9495;51.210;2.934;2022-09-09T03:25:55;15.48;;;4.00;;
18732;SDS011;9495;51.210;2.934;2022-09-09T03:28:25;13.70;;;4.32;;
18732;SDS011;9495;51.210;2.934;2022-09-09T03:30:59;13.07;;;3.83;;
18732;SDS011;9495;51.210;2.934;2022-09-09T03:33:29;14.50;;;3.70;;
18732;SDS011;9495;51.210;2.934;2022-09-09T03:35:57;13.82;;;3.95;;
18732;SDS011;9495;51.210;2.934;2022-09-09T03:38:26;7.20;;;3.80;;
18732;SDS011;9495;51.210;2.934;2022-09-09T03:40:55;15.63;;;4.05;;
18732;SDS011;9495;51.210;2.934;2022-09-09T03:43:24;10.30;;;3.55;;
18732;SDS011;9495;51.210;2.934;2022-09-09T03:45:53;15.88;;;4.22;;
18732;SDS011;9495;51.210;2.934;2022-09-09T03:48:24;17.67;;;3.90;;
18732;SDS011;9495;51.210;2.934;2022-09-09T03:50:54;17.52;;;4.20;;
18732;SDS011;9495;51.210;2.934;2022-09-09T03:53:24;18.10;;;3.97;;
18732;SDS011;9495;51.210;2.934;2022-09-09T03:55:53;15.43;;;4.07;;
18732;SDS011;9495;51.210;2.934;2022-09-09T03:58:25;22.20;;;4.20;;
18732;SDS011;9495;51.210;2.934;2022-09-09T04:00:55;11.77;;;3.53;;
18732;SDS011;9495;51.210;2.934;2022-09-09T04:03:25;16.40;;;3.92;;
18732;SDS011;9495;51.210;2.934;2022-09-09T04:05:54;14.02;;;3.88;;
18732;SDS011;9495;51.210;2.934;2022-09-09T04:08:23;11.23;;;3.45;;
18732;SDS011;9495;51.210;2.934;2022-09-09T04:10:52;15.40;;;4.18;;
18732;SDS011;9495;51.210;2.934;2022-09-09T04:13:25;16.83;;;3.15;;
18732;SDS011;9495;51.210;2.934;2022-09-09T04:15:54;11.23;;;2.97;;
18732;SDS011;9495;51.210;2.934;2022-09-09T04:18:24;15.15;;;3.70;;
18732;SDS011;9495;51.210;2.934;2022-09-09T04:20:54;16.38;;;3.95;;
18732;SDS011;9495;51.210;2.934;2022-09-09T04:23:24;12.63;;;3.85;;
18732;SDS011;9495;51.210;2.934;2022-09-09T04:25:55;12.27;;;3.10;;
18732;SDS011;9495;51.210;2.934;2022-09-09T04:28:24;10.02;;;3.20;;
18732;SDS011;9495;51.210;2.934;2022-09-09T04:30:54;17.75;;;3.80;;
18732;SDS011;9495;51.210;2.934;2022-09-09T04:33:24;18.35;;;3.83;;
18732;SDS011;9495;51.210;2.934;2022-09-09T04:35:53;11.27;;;3.42;;
18732;SDS011;9495;51.210;2.934;2022-09-09T04:38:22;15.45;;;3.58;;
18732;SDS011;9495;51.210;2.934;2022-09-09T04:40:50;15.98;;;3.95;;
18732;SDS011;9495;51.210;2.934;2022-09-09T04:43:20;14.10;;;3.03;;
18732;SDS011;9495;51.210;2.934;2022-09-09T04:45:50;10.88;;;3.03;;
18732;SDS011;9495;51.210;2.934;2022-09-09T04:48:19;17.50;;;3.40;;
18732;SDS011;9495;51.210;2.934;2022-09-09T04:50:56;13.80;;;3.45;;
18732;SDS011;9495;51.210;2.934;2022-09-09T04:53:25;11.80;;;2.95;;
18732;SDS011;9495;51.210;2.934;2022-09-09T04:56:00;15.95;;;3.40;;
18732;SDS011;9495;51.210;2.934;2022-09-09T04:58:30;10.20;;;2.88;;
18732;SDS011;9495;51.210;2.934;2022-09-09T05:01:05;9.65;;;2.67;;
18732;SDS011;9495;51.210;2.934;2022-09-09T05:03:34;10.98;;;2.88;;
18732;SDS011;9495;51.210;2.934;2022-09-09T05:06:06;8.82;;;2.97;;
18732;SDS011;9495;51.210;2.934;2022-09-09T05:08:36;11.73;;;3.35;;
18732;SDS011;9495;51.210;2.934;2022-09-09T05:11:11;16.25;;;3.20;;
18732;SDS011;9495;51.210;2.934;2022-09-09T05:13:41;12.75;;;3.40;;
18732;SDS011;9495;51.210;2.934;2022-09-09T05:16:10;14.15;;;3.85;;
18732;SDS011;9495;51.210;2.934;2022-09-09T05:18:39;14.25;;;3.92;;
18732;SDS011;9495;51.210;2.934;2022-09-09T05:21:10;10.10;;;3.45;;
18732;SDS011;9495;51.210;2.934;2022-09-09T05:23:39;10.43;;;3.20;;
18732;SDS011;9495;51.210;2.934;2022-09-09T05:26:09;13.68;;;3.38;;
18732;SDS011;9495;51.210;2.934;2022-09-09T05:28:43;14.30;;;3.22;;
18732;SDS011;9495;51.210;2.934;2022-09-09T05:31:12;11.85;;;3.17;;
18732;SDS011;9495;51.210;2.934;2022-09-09T05:33:42;16.00;;;3.30;;
18732;SDS011;9495;51.210;2.934;2022-09-09T05:36:14;10.57;;;3.47;;
18732;SDS011;9495;51.210;2.934;2022-09-09T05:38:43;16.88;;;3.40;;
18732;SDS011;9495;51.210;2.934;2022-09-09T05:41:12;11.98;;;3.70;;
18732;SDS011;9495;51.210;2.934;2022-09-09T05:43:42;14.07;;;3.63;;
18732;SDS011;9495;51.210;2.934;2022-09-09T05:46:13;13.82;;;2.95;;
18732;SDS011;9495;51.210;2.934;2022-09-09T05:48:43;14.13;;;3.60;;
18732;SDS011;9495;51.210;2.934;2022-09-09T05:51:15;12.20;;;2.78;;
18732;SDS011;9495;51.210;2.934;2022-09-09T05:53:44;11.55;;;3.53;;
18732;SDS011;9495;51.210;2.934;2022-09-09T05:56:13;11.63;;;3.50;;
18732;SDS011;9495;51.210;2.934;2022-09-09T05:58:42;8.02;;;2.65;;
18732;SDS011;9495;51.210;2.934;2022-09-09T06:01:11;9.63;;;2.28;;
18732;SDS011;9495;51.210;2.934;2022-09-09T06:03:41;11.77;;;2.47;;
18732;SDS011;9495;51.210;2.934;2022-09-09T06:06:11;9.38;;;2.95;;
18732;SDS011;9495;51.210;2.934;2022-09-09T06:08:42;12.90;;;3.25;;
18732;SDS011;9495;51.210;2.934;2022-09-09T06:11:12;15.05;;;3.83;;
18732;SDS011;9495;51.210;2.934;2022-09-09T06:13:41;14.20;;;3.47;;
18732;SDS011;9495;51.210;2.934;2022-09-09T06:16:10;11.65;;;2.53;;
18732;SDS011;9495;51.210;2.934;2022-09-09T06:18:40;14.98;;;3.25;;
18732;SDS011;9495;51.210;2.934;2022-09-09T06:21:11;13.43;;;3.33;;
18732;SDS011;9495;51.210;2.934;2022-09-09T06:23:43;8.52;;;2.70;;
18732;SDS011;9495;51.210;2.934;2022-09-09T06:26:12;10.07;;;2.95;;
18732;SDS011;9495;51.210;2.934;2022-09-09T06:28:42;10.05;;;3.00;;
18732;SDS011;9495;51.210;2.934;2022-09-09T06:31:10;12.43;;;3.25;;
18732;SDS011;9495;51.210;2.934;2022-09-09T06:33:40;12.60;;;2.97;;
18732;SDS011;9495;51.210;2.934;2022-09-09T06:36:10;14.93;;;3.35;;
18732;SDS011;9495;51.210;2.934;2022-09-09T06:38:41;12.63;;;3.70;;
18732;SDS011;9495;51.210;2.934;2022-09-09T06:41:10;11.75;;;2.90;;
18732;SDS011;9495;51.210;2.934;2022-09-09T06:43:39;14.55;;;3.50;;
18732;SDS011;9495;51.210;2.934;2022-09-09T06:46:08;11.25;;;3.30;;
18732;SDS011;9495;51.210;2.934;2022-09-09T06:48:38;9.85;;;3.40;;
18732;SDS011;9495;51.210;2.934;2022-09-09T06:51:08;9.65;;;3.88;;
18732;SDS011;9495;51.210;2.934;2022-09-09T06:53:41;9.05;;;3.05;;
18732;SDS011;9495;51.210;2.934;2022-09-09T06:56:21;15.68;;;3.47;;
18732;SDS011;9495;51.210;2.934;2022-09-09T06:58:50;8.13;;;3.30;;
18732;SDS011;9495;51.210;2.934;2022-09-09T07:01:20;15.70;;;4.03;;
18732;SDS011;9495;51.210;2.934;2022-09-09T07:03:49;13.85;;;3.90;;
18732;SDS011;9495;51.210;2.934;2022-09-09T07:06:19;15.73;;;3.75;;
18732;SDS011;9495;51.210;2.934;2022-09-09T07:08:51;14.73;;;3.60;;
18732;SDS011;9495;51.210;2.934;2022-09-09T07:11:22;12.85;;;3.17;;
18732;SDS011;9495;51.210;2.934;2022-09-09T07:13:53;12.18;;;3.30;;
18732;SDS011;9495;51.210;2.934;2022-09-09T07:16:22;9.05;;;2.92;;
18732;SDS011;9495;51.210;2.934;2022-09-09T07:18:51;8.73;;;3.00;;
18732;SDS011;9495;51.210;2.934;2022-09-09T07:21:24;8.50;;;2.63;;
18732;SDS011;9495;51.210;2.934;2022-09-09T07:23:55;9.70;;;2.65;;
18732;SDS011;9495;51.210;2.934;2022-09-09T07:26:24;9.02;;;2.55;;
18732;SDS011;9495;51.210;2.934;2022-09-09T07:28:53;10.30;;;2.67;;
18732;SDS011;9495;51.210;2.934;2022-09-09T07:31:24;7.55;;;2.25;;
18732;SDS011;9495;51.210;2.934;2022-09-09T07:33:53;5.95;;;2.20;;
18732;SDS011;9495;51.210;2.934;2022-09-09T07:36:22;8.02;;;2.08;;
18732;SDS011;9495;51.210;2.934;2022-09-09T07:39:00;8.65;;;2.47;;
18732;SDS011;9495;51.210;2.934;2022-09-09T07:41:31;7.78;;;2.30;;
18732;SDS011;9495;51.210;2.934;2022-09-09T07:44:04;7.25;;;2.22;;
18732;SDS011;9495;51.210;2.934;2022-09-09T07:46:34;5.35;;;1.92;;
18732;SDS011;9495;51.210;2.934;2022-09-09T07:49:03;5.55;;;2.13;;
18732;SDS011;9495;51.210;2.934;2022-09-09T07:51:32;8.05;;;2.60;;
18732;SDS011;9495;51.210;2.934;2022-09-09T07:54:03;8.13;;;2.85;;
18732;SDS011;9495;51.210;2.934;2022-09-09T07:56:32;6.90;;;2.97;;
18732;SDS011;9495;51.210;2.934;2022-09-09T07:59:01;6.50;;;2.47;;
18732;SDS011;9495;51.210;2.934;2022-09-09T08:01:32;5.93;;;2.55;;
18732;SDS011;9495;51.210;2.934;2022-09-09T08:04:04;6.63;;;2.45;;
18732;SDS011;9495;51.210;2.934;2022-09-09T08:06:35;9.00;;;2.70;;
18732;SDS011;9495;51.210;2.934;2022-09-09T08:09:07;5.82;;;2.38;;
18732;SDS011;9495;51.210;2.934;2022-09-09T08:11:36;5.07;;;2.35;;
18732;SDS011;9495;51.210;2.934;2022-09-09T08:14:06;7.55;;;2.28;;
18732;SDS011;9495;51.210;2.934;2022-09-09T08:16:36;5.55;;;2.70;;
18732;SDS011;9495;51.210;2.934;2022-09-09T08:19:06;8.73;;;2.20;;
18732;SDS011;9495;51.210;2.934;2022-09-09T08:21:35;7.30;;;2.53;;
18732;SDS011;9495;51.210;2.934;2022-09-09T08:24:08;6.30;;;2.33;;
18732;SDS011;9495;51.210;2.934;2022-09-09T08:26:38;7.55;;;2.30;;
18732;SDS011;9495;51.210;2.934;2022-09-09T08:29:09;6.05;;;2.10;;
18732;SDS011;9495;51.210;2.934;2022-09-09T08:31:40;8.70;;;2.80;;
18732;SDS011;9495;51.210;2.934;2022-09-09T08:34:10;6.88;;;2.60;;
18732;SDS011;9495;51.210;2.934;2022-09-09T08:36:39;5.90;;;2.60;;
18732;SDS011;9495;51.210;2.934;2022-09-09T08:39:11;5.50;;;2.00;;
18732;SDS011;9495;51.210;2.934;2022-09-09T08:41:51;6.30;;;2.17;;
18732;SDS011;9495;51.210;2.934;2022-09-09T08:44:37;6.95;;;2.45;;
18732;SDS011;9495;51.210;2.934;2022-09-09T08:47:17;5.80;;;2.30;;
18732;SDS011;9495;51.210;2.934;2022-09-09T08:50:02;2.78;;;1.75;;
18732;SDS011;9495;51.210;2.934;2022-09-09T08:52:41;6.68;;;2.03;;
18732;SDS011;9495;51.210;2.934;2022-09-09T08:55:27;12.48;;;2.65;;
18732;SDS011;9495;51.210;2.934;2022-09-09T08:58:04;5.60;;;1.73;;
18732;SDS011;9495;51.210;2.934;2022-09-09T09:00:40;8.30;;;2.60;;
18732;SDS011;9495;51.210;2.934;2022-09-09T09:03:32;6.35;;;2.65;;
18732;SDS011;9495;51.210;2.934;2022-09-09T09:06:12;6.18;;;2.80;;
18732;SDS011;9495;51.210;2.934;2022-09-09T09:08:51;5.53;;;1.77;;
18732;SDS011;9495;51.210;2.934;2022-09-09T09:11:28;6.68;;;2.78;;
18732;SDS011;9495;51.210;2.934;2022-09-09T09:14:05;7.13;;;2.35;;
18732;SDS011;9495;51.210;2.934;2022-09-09T09:16:38;8.95;;;2.55;;
18732;SDS011;9495;51.210;2.934;2022-09-09T09:19:14;5.90;;;2.40;;
18732;SDS011;9495;51.210;2.934;2022-09-09T09:21:44;11.52;;;2.58;;
18732;SDS011;9495;51.210;2.934;2022-09-09T09:24:18;7.40;;;2.47;;
18732;SDS011;9495;51.210;2.934;2022-09-09T09:26:49;9.85;;;2.55;;
18732;SDS011;9495;51.210;2.934;2022-09-09T09:29:19;8.95;;;2.80;;
18732;SDS011;9495;51.210;2.934;2022-09-09T09:31:50;6.72;;;2.80;;
18732;SDS011;9495;51.210;2.934;2022-09-09T09:34:21;7.47;;;2.85;;
18732;SDS011;9495;51.210;2.934;2022-09-09T09:36:52;8.13;;;2.88;;
18732;SDS011;9495;51.210;2.934;2022-09-09T09:39:25;8.23;;;2.65;;
18732;SDS011;9495;51.210;2.934;2022-09-09T09:42:17;9.73;;;2.90;;
18732;SDS011;9495;51.210;2.934;2022-09-09T09:44:49;7.47;;;2.65;;
18732;SDS011;9495;51.210;2.934;2022-09-09T09:47:18;8.98;;;2.28;;
18732;SDS011;9495;51.210;2.934;2022-09-09T09:49:53;6.63;;;2.75;;
18732;SDS011;9495;51.210;2.934;2022-09-09T09:52:23;7.47;;;2.25;;
18732;SDS011;9495;51.210;2.934;2022-09-09T09:54:53;7.60;;;2.63;;
18732;SDS011;9495;51.210;2.934;2022-09-09T09:57:24;11.52;;;2.70;;
18732;SDS011;9495;51.210;2.934;2022-09-09T10:00:03;8.43;;;2.60;;
18732;SDS011;9495;51.210;2.934;2022-09-09T10:02:40;8.02;;;2.92;;
18732;SDS011;9495;51.210;2.934;2022-09-09T10:05:12;9.75;;;3.20;;
18732;SDS011;9495;51.210;2.934;2022-09-09T10:07:42;6.90;;;3.10;;
18732;SDS011;9495;51.210;2.934;2022-09-09T10:10:13;13.63;;;4.13;;
18732;SDS011;9495;51.210;2.934;2022-09-09T10:12:51;8.20;;;3.20;;
18732;SDS011;9495;51.210;2.934;2022-09-09T10:15:30;9.60;;;3.47;;
18732;SDS011;9495;51.210;2.934;2022-09-09T10:18:15;11.40;;;3.40;;
18732;SDS011;9495;51.210;2.934;2022-09-09T10:21:05;8.23;;;3.25;;
18732;SDS011;9495;51.210;2.934;2022-09-09T10:23:45;10.18;;;3.08;;
18732;SDS011;9495;51.210;2.934;2022-09-09T10:26:29;13.43;;;3.13;;
18732;SDS011;9495;51.210;2.934;2022-09-09T10:32:02;7.35;;;2.83;;
18732;SDS011;9495;51.210;2.934;2022-09-09T10:34:41;13.93;;;3.20;;
18732;SDS011;9495;51.210;2.934;2022-09-09T10:37:43;15.55;;;2.97;;
18732;SDS011;9495;51.210;2.934;2022-09-09T10:40:23;13.63;;;2.78;;
18732;SDS011;9495;51.210;2.934;2022-09-09T10:43:01;12.27;;;2.78;;
18732;SDS011;9495;51.210;2.934;2022-09-09T10:45:40;11.02;;;2.40;;
18732;SDS011;9495;51.210;2.934;2022-09-09T10:48:20;8.18;;;2.60;;
18732;SDS011;9495;51.210;2.934;2022-09-09T10:51:02;7.60;;;2.50;;
18732;SDS011;9495;51.210;2.934;2022-09-09T10:53:44;7.90;;;2.63;;
18732;SDS011;9495;51.210;2.934;2022-09-09T10:56:21;11.30;;;2.65;;
18732;SDS011;9495;51.210;2.934;2022-09-09T10:58:52;8.57;;;2.80;;
18732;SDS011;9495;51.210;2.934;2022-09-09T11:01:27;3.88;;;2.22;;
18732;SDS011;9495;51.210;2.934;2022-09-09T11:04:01;9.38;;;2.63;;
18732;SDS011;9495;51.210;2.934;2022-09-09T11:06:37;7.07;;;2.20;;
18732;SDS011;9495;51.210;2.934;2022-09-09T11:09:09;9.02;;;2.75;;
18732;SDS011;9495;51.210;2.934;2022-09-09T11:11:44;6.95;;;2.15;;
18732;SDS011;9495;51.210;2.934;2022-09-09T11:14:19;11.82;;;2.90;;
18732;SDS011;9495;51.210;2.934;2022-09-09T11:16:56;6.63;;;2.35;;
18732;SDS011;9495;51.210;2.934;2022-09-09T11:19:28;10.15;;;2.75;;
18732;SDS011;9495;51.210;2.934;2022-09-09T11:22:01;7.00;;;2.47;;
18732;SDS011;9495;51.210;2.934;2022-09-09T11:24:33;10.88;;;2.78;;
18732;SDS011;9495;51.210;2.934;2022-09-09T11:27:08;10.35;;;2.80;;
18732;SDS011;9495;51.210;2.934;2022-09-09T11:29:52;5.15;;;2.45;;
18732;SDS011;9495;51.210;2.934;2022-09-09T11:33:08;6.63;;;2.10;;
18732;SDS011;9495;51.210;2.934;2022-09-09T11:36:00;7.50;;;2.00;;
18732;SDS011;9495;51.210;2.934;2022-09-09T11:38:41;8.10;;;2.15;;
18732;SDS011;9495;51.210;2.934;2022-09-09T11:41:13;9.23;;;2.58;;
18732;SDS011;9495;51.210;2.934;2022-09-09T11:43:47;15.00;;;3.05;;
18732;SDS011;9495;51.210;2.934;2022-09-09T11:46:18;7.90;;;2.67;;
18732;SDS011;9495;51.210;2.934;2022-09-09T11:48:58;7.25;;;2.28;;
18732;SDS011;9495;51.210;2.934;2022-09-09T11:51:28;9.75;;;2.80;;
18732;SDS011;9495;51.210;2.934;2022-09-09T11:53:58;10.60;;;3.10;;
18732;SDS011;9495;51.210;2.934;2022-09-09T11:56:29;13.32;;;3.47;;
18732;SDS011;9495;51.210;2.934;2022-09-09T11:59:02;6.70;;;3.03;;
18732;SDS011;9495;51.210;2.934;2022-09-09T12:01:37;9.32;;;2.75;;
18732;SDS011;9495;51.210;2.934;2022-09-09T12:04:14;8.95;;;3.28;;
18732;SDS011;9495;51.210;2.934;2022-09-09T12:07:00;11.68;;;3.25;;
18732;SDS011;9495;51.210;2.934;2022-09-09T12:09:36;10.77;;;2.92;;
18732;SDS011;9495;51.210;2.934;2022-09-09T12:12:21;10.00;;;3.22;;
18732;SDS011;9495;51.210;2.934;2022-09-09T12:14:55;10.93;;;3.00;;
18732;SDS011;9495;51.210;2.934;2022-09-09T12:17:27;6.45;;;2.33;;
18732;SDS011;9495;51.210;2.934;2022-09-09T12:20:01;6.25;;;2.15;;
18732;SDS011;9495;51.210;2.934;2022-09-09T12:22:38;7.55;;;2.17;;
18732;SDS011;9495;51.210;2.934;2022-09-09T12:25:16;9.00;;;2.00;;
18732;SDS011;9495;51.210;2.934;2022-09-09T12:27:55;7.68;;;1.83;;
18732;SDS011;9495;51.210;2.934;2022-09-09T12:30:31;10.20;;;2.33;;
18732;SDS011;9495;51.210;2.934;2022-09-09T12:33:08;9.13;;;2.60;;
18732;SDS011;9495;51.210;2.934;2022-09-09T12:35:41;12.25;;;2.88;;
18732;SDS011;9495;51.210;2.934;2022-09-09T12:38:14;14.88;;;3.60;;
18732;SDS011;9495;51.210;2.934;2022-09-09T12:40:53;14.02;;;3.55;;
18732;SDS011;9495;51.210;2.934;2022-09-09T12:43:24;13.57;;;4.43;;
18732;SDS011;9495;51.210;2.934;2022-09-09T12:45:55;8.75;;;2.50;;
18732;SDS011;9495;51.210;2.934;2022-09-09T12:48:28;9.15;;;3.20;;
18732;SDS011;9495;51.210;2.934;2022-09-09T12:51:02;9.60;;;2.72;;
18732;SDS011;9495;51.210;2.934;2022-09-09T12:53:33;8.55;;;3.20;;
18732;SDS011;9495;51.210;2.934;2022-09-09T12:56:04;8.48;;;2.50;;
18732;SDS011;9495;51.210;2.934;2022-09-09T12:58:35;5.35;;;2.75;;
18732;SDS011;9495;51.210;2.934;2022-09-09T13:01:05;4.97;;;2.25;;
18732;SDS011;9495;51.210;2.934;2022-09-09T13:03:45;7.82;;;2.70;;
18732;SDS011;9495;51.210;2.934;2022-09-09T13:06:18;8.63;;;2.17;;
18732;SDS011;9495;51.210;2.934;2022-09-09T13:08:54;5.15;;;2.20;;
18732;SDS011;9495;51.210;2.934;2022-09-09T13:11:25;7.57;;;2.10;;
18732;SDS011;9495;51.210;2.934;2022-09-09T13:13:56;6.68;;;2.20;;
18732;SDS011;9495;51.210;2.934;2022-09-09T13:16:25;8.18;;;2.80;;
18732;SDS011;9495;51.210;2.934;2022-09-09T13:18:59;10.02;;;3.55;;
18732;SDS011;9495;51.210;2.934;2022-09-09T13:21:34;6.20;;;2.45;;
18732;SDS011;9495;51.210;2.934;2022-09-09T13:24:04;9.48;;;2.50;;
18732;SDS011;9495;51.210;2.934;2022-09-09T13:26:36;12.10;;;2.70;;
18732;SDS011;9495;51.210;2.934;2022-09-09T13:29:14;8.30;;;2.75;;
18732;SDS011;9495;51.210;2.934;2022-09-09T13:31:47;7.55;;;2.95;;
18732;SDS011;9495;51.210;2.934;2022-09-09T13:34:28;11.30;;;3.83;;
18732;SDS011;9495;51.210;2.934;2022-09-09T13:37:00;11.88;;;3.50;;
18732;SDS011;9495;51.210;2.934;2022-09-09T13:39:32;17.33;;;4.20;;
18732;SDS011;9495;51.210;2.934;2022-09-09T13:42:03;11.95;;;3.63;;
18732;SDS011;9495;51.210;2.934;2022-09-09T13:44:34;13.73;;;4.00;;
18732;SDS011;9495;51.210;2.934;2022-09-09T13:47:16;7.15;;;2.30;;
18732;SDS011;9495;51.210;2.934;2022-09-09T13:49:46;7.35;;;2.38;;
18732;SDS011;9495;51.210;2.934;2022-09-09T13:52:16;6.97;;;2.47;;
18732;SDS011;9495;51.210;2.934;2022-09-09T13:54:46;7.07;;;2.20;;
18732;SDS011;9495;51.210;2.934;2022-09-09T13:57:16;12.15;;;3.20;;
18732;SDS011;9495;51.210;2.934;2022-09-09T13:59:45;11.30;;;2.80;;
18732;SDS011;9495;51.210;2.934;2022-09-09T14:02:31;5.88;;;2.10;;
18732;SDS011;9495;51.210;2.934;2022-09-09T14:05:00;4.32;;;1.92;;
18732;SDS011;9495;51.210;2.934;2022-09-09T14:07:30;4.65;;;1.92;;
18732;SDS011;9495;51.210;2.934;2022-09-09T14:09:58;4.07;;;2.00;;
18732;SDS011;9495;51.210;2.934;2022-09-09T14:12:27;7.18;;;2.13;;
18732;SDS011;9495;51.210;2.934;2022-09-09T14:14:55;8.23;;;2.63;;
18732;SDS011;9495;51.210;2.934;2022-09-09T14:17:24;7.00;;;2.13;;
18732;SDS011;9495;51.210;2.934;2022-09-09T14:19:55;6.80;;;2.03;;
18732;SDS011;9495;51.210;2.934;2022-09-09T14:22:24;6.88;;;2.50;;
18732;SDS011;9495;51.210;2.934;2022-09-09T14:24:54;10.30;;;2.38;;
18732;SDS011;9495;51.210;2.934;2022-09-09T14:27:23;8.52;;;2.33;;
18732;SDS011;9495;51.210;2.934;2022-09-09T14:29:53;8.15;;;1.90;;
18732;SDS011;9495;51.210;2.934;2022-09-09T14:32:22;6.75;;;2.22;;
18732;SDS011;9495;51.210;2.934;2022-09-09T14:34:50;6.35;;;2.40;;
18732;SDS011;9495;51.210;2.934;2022-09-09T14:37:18;6.18;;;2.33;;
18732;SDS011;9495;51.210;2.934;2022-09-09T14:39:47;8.52;;;2.70;;
18732;SDS011;9495;51.210;2.934;2022-09-09T14:42:18;9.80;;;3.17;;
18732;SDS011;9495;51.210;2.934;2022-09-09T14:44:46;5.55;;;2.83;;
18732;SDS011;9495;51.210;2.934;2022-09-09T14:47:15;5.15;;;2.50;;
18732;SDS011;9495;51.210;2.934;2022-09-09T14:49:43;7.70;;;2.75;;
18732;SDS011;9495;51.210;2.934;2022-09-09T14:52:12;6.95;;;2.97;;
18732;SDS011;9495;51.210;2.934;2022-09-09T14:54:41;11.75;;;3.58;;
18732;SDS011;9495;51.210;2.934;2022-09-09T14:57:10;9.38;;;3.33;;
18732;SDS011;9495;51.210;2.934;2022-09-09T14:59:40;11.82;;;3.00;;
18732;SDS011;9495;51.210;2.934;2022-09-09T15:02:08;8.00;;;3.10;;
18732;SDS011;9495;51.210;2.934;2022-09-09T15:04:40;9.80;;;2.78;;
18732;SDS011;9495;51.210;2.934;2022-09-09T15:07:08;7.18;;;3.08;;
18732;SDS011;9495;51.210;2.934;2022-09-09T15:09:37;5.40;;;2.47;;
18732;SDS011;9495;51.210;2.934;2022-09-09T15:12:05;10.52;;;2.28;;
18732;SDS011;9495;51.210;2.934;2022-09-09T15:14:34;5.45;;;2.08;;
18732;SDS011;9495;51.210;2.934;2022-09-09T15:17:04;8.88;;;2.78;;
18732;SDS011;9495;51.210;2.934;2022-09-09T15:19:32;10.90;;;2.75;;
18732;SDS011;9495;51.210;2.934;2022-09-09T15:22:01;6.07;;;2.08;;
18732;SDS011;9495;51.210;2.934;2022-09-09T15:24:29;5.47;;;2.25;;
18732;SDS011;9495;51.210;2.934;2022-09-09T15:26:58;4.90;;;2.33;;
18732;SDS011;9495;51.210;2.934;2022-09-09T15:29:27;6.03;;;2.75;;
18732;SDS011;9495;51.210;2.934;2022-09-09T15:31:55;8.50;;;2.50;;